sensor_id;sensor_type;location;lat;lon;timestamp;P1;durP1;ratioP1;P2;durP2;ratioP2
63034;SDS011;59750;53.356;-1.458;2022-09-09T10:22:47;5.68;;;2.50;;
63034;SDS011;59750;53.356;-1.458;2022-09-09T10:25:23;5.60;;;2.83;;
63034;SDS011;59750;53.356;-1.458;2022-09-09T10:31:18;3.83;;;2.10;;
63034;SDS011;59750;53.356;-1.458;2022-09-09T10:33:51;5.45;;;2.60;;
63034;SDS011;59750;53.356;-1.458;2022-09-09T10:36:25;3.63;;;2.10;;
63034;SDS011;59750;53.356;-1.458;2022-09-09T10:55:51;3.33;;;1.70;;
63034;SDS011;59750;53.356;-1.458;2022-09-09T10:58:30;6.32;;;2.22;;
63034;SDS011;59750;53.356;-1.458;2022-09-09T11:01:18;6.78;;;2.35;;
63034;SDS011;59750;53.356;-1.458;2022-09-09T11:03:54;5.00;;;2.05;;
63034;SDS011;59750;53.356;-1.458;2022-09-09T11:06:35;4.30;;;1.80;;
63034;SDS011;59750;53.356;-1.458;2022-09-09T11:09:13;4.90;;;1.88;;
63034;SDS011;59750;53.356;-1.458;2022-09-09T11:14:32;5.05;;;1.70;;
63034;SDS011;59750;53.356;-1.458;2022-09-09T11:17:10;6.75;;;1.70;;
63034;SDS011;59750;53.356;-1.458;2022-09-09T11:19:43;5.80;;;2.05;;
63034;SDS011;59750;53.356;-1.458;2022-09-09T11:25:15;5.55;;;1.83;;
63034;SDS011;59750;53.356;-1.458;2022-09-09T11:27:53;4.10;;;1.60;;
63034;SDS011;59750;53.356;-1.458;2022-09-09T11:44:40;5.55;;;1.55;;
63034;SDS011;59750;53.356;-1.458;2022-09-09T11:47:21;3.42;;;1.55;;
63034;SDS011;59750;53.356;-1.458;2022-09-09T11:52:42;3.05;;;0.98;;
63034;SDS011;59750;53.356;-1.458;2022-09-09T11:58:02;5.03;;;1.02;;
63034;SDS011;59750;53.356;-1.458;2022-09-09T12:06:16;5.57;;;1.13;;
63034;SDS011;59750;53.356;-1.458;2022-09-09T12:11:27;1.65;;;0.65;;
63034;SDS011;59750;53.356;-1.458;2022-09-09T12:13:56;2.78;;;0.90;;
63034;SDS011;59750;53.356;-1.458;2022-09-09T12:16:30;2.13;;;0.82;;
63034;SDS011;59750;53.356;-1.458;2022-09-09T12:21:41;4.13;;;1.40;;
63034;SDS011;59750;53.356;-1.458;2022-09-09T12:24:34;3.38;;;1.25;;
63034;SDS011;59750;53.356;-1.458;2022-09-09T12:27:07;4.03;;;1.30;;
63034;SDS011;59750;53.356;-1.458;2022-09-09T12:32:22;3.42;;;2.15;;
63034;SDS011;59750;53.356;-1.458;2022-09-09T12:40:25;4.60;;;2.50;;
63034;SDS011;59750;53.356;-1.458;2022-09-09T12:42:55;4.88;;;1.85;;
63034;SDS011;59750;53.356;-1.458;2022-09-09T12:45:22;3.33;;;1.63;;
63034;SDS011;59750;53.356;-1.458;2022-09-09T12:47:59;4.25;;;1.70;;
63034;SDS011;59750;53.356;-1.458;2022-09-09T12:50:35;7.72;;;1.80;;
63034;SDS011;59750;53.356;-1.458;2022-09-09T12:56:02;3.70;;;1.65;;
63034;SDS011;59750;53.356;-1.458;2022-09-09T12:58:34;4.57;;;1.50;;
63034;SDS011;59750;53.356;-1.458;2022-09-09T13:01:04;5.80;;;2.10;;
63034;SDS011;59750;53.356;-1.458;2022-09-09T13:03:33;4.63;;;1.80;;
63034;SDS011;59750;53.356;-1.458;2022-09-09T13:06:11;6.95;;;1.90;;
63034;SDS011;59750;53.356;-1.458;2022-09-09T13:08:40;5.23;;;1.90;;
63034;SDS011;59750;53.356;-1.458;2022-09-09T13:11:08;5.15;;;2.38;;
63034;SDS011;59750;53.356;-1.458;2022-09-09T13:13:40;6.00;;;1.95;;
63034;SDS011;59750;53.356;-1.458;2022-09-09T13:19:01;3.65;;;1.88;;
63034;SDS011;59750;53.356;-1.458;2022-09-09T13:21:35;4.47;;;1.77;;
63034;SDS011;59750;53.356;-1.458;2022-09-09T13:24:05;5.95;;;1.85;;
63034;SDS011;59750;53.356;-1.458;2022-09-09T13:26:56;6.22;;;1.95;;
63034;SDS011;59750;53.356;-1.458;2022-09-09T13:29:26;3.90;;;2.10;;
63034;SDS011;59750;53.356;-1.458;2022-09-09T13:31:52;3.95;;;2.20;;
63034;SDS011;59750;53.356;-1.458;2022-09-09T13:37:00;4.03;;;2.20;;
63034;SDS011;59750;53.356;-1.458;2022-09-09T13:39:33;5.00;;;2.10;;
63034;SDS011;59750;53.356;-1.458;2022-09-09T13:42:03;4.25;;;1.73;;
63034;SDS011;59750;53.356;-1.458;2022-09-09T13:44:31;2.60;;;1.50;;
63034;SDS011;59750;53.356;-1.458;2022-09-09T13:47:04;4.53;;;1.40;;
63034;SDS011;59750;53.356;-1.458;2022-09-09T13:49:45;1.57;;;1.07;;
63034;SDS011;59750;53.356;-1.458;2022-09-09T13:52:13;3.13;;;1.20;;
63034;SDS011;59750;53.356;-1.458;2022-09-09T13:54:43;2.05;;;1.13;;
63034;SDS011;59750;53.356;-1.458;2022-09-09T13:57:17;2.33;;;1.00;;
63034;SDS011;59750;53.356;-1.458;2022-09-09T13:59:46;2.42;;;1.08;;
63034;SDS011;59750;53.356;-1.458;2022-09-09T14:02:15;3.40;;;1.10;;
63034;SDS011;59750;53.356;-1.458;2022-09-09T14:04:42;3.35;;;1.63;;
63034;SDS011;59750;53.356;-1.458;2022-09-09T14:07:11;3.45;;;2.28;;
63034;SDS011;59750;53.356;-1.458;2022-09-09T14:09:40;4.07;;;1.55;;
63034;SDS011;59750;53.356;-1.458;2022-09-09T14:12:13;3.05;;;0.98;;
63034;SDS011;59750;53.356;-1.458;2022-09-09T14:14:42;2.30;;;1.05;;
63034;SDS011;59750;53.356;-1.458;2022-09-09T14:17:10;1.48;;;0.90;;
63034;SDS011;59750;53.356;-1.458;2022-09-09T14:19:37;3.00;;;1.00;;
63034;SDS011;59750;53.356;-1.458;2022-09-09T14:22:04;3.28;;;1.02;;
63034;SDS011;59750;53.356;-1.458;2022-09-09T14:24:31;2.97;;;1.10;;
63034;SDS011;59750;53.356;-1.458;2022-09-09T14:26:57;3.05;;;1.00;;
63034;SDS011;59750;53.356;-1.458;2022-09-09T14:29:24;2.20;;;0.90;;
63034;SDS011;59750;53.356;-1.458;2022-09-09T14:31:52;1.98;;;1.10;;
63034;SDS011;59750;53.356;-1.458;2022-09-09T14:34:18;3.60;;;1.08;;
63034;SDS011;59750;53.356;-1.458;2022-09-09T14:36:45;3.03;;;0.85;;
63034;SDS011;59750;53.356;-1.458;2022-09-09T14:39:13;3.03;;;0.90;;
63034;SDS011;59750;53.356;-1.458;2022-09-09T14:41:40;1.65;;;1.00;;
63034;SDS011;59750;53.356;-1.458;2022-09-09T14:44:08;1.35;;;1.10;;
63034;SDS011;59750;53.356;-1.458;2022-09-09T14:46:37;1.95;;;1.20;;
63034;SDS011;59750;53.356;-1.458;2022-09-09T14:49:04;2.97;;;1.08;;
63034;SDS011;59750;53.356;-1.458;2022-09-09T14:51:30;1.58;;;0.90;;
63034;SDS011;59750;53.356;-1.458;2022-09-09T14:53:57;1.67;;;0.70;;
63034;SDS011;59750;53.356;-1.458;2022-09-09T14:56:27;2.88;;;1.00;;
63034;SDS011;59750;53.356;-1.458;2022-09-09T14:58:56;2.47;;;0.90;;
63034;SDS011;59750;53.356;-1.458;2022-09-09T15:01:24;2.55;;;1.08;;
63034;SDS011;59750;53.356;-1.458;2022-09-09T15:03:56;1.95;;;0.90;;
63034;SDS011;59750;53.356;-1.458;2022-09-09T15:06:24;2.40;;;1.35;;
63034;SDS011;59750;53.356;-1.458;2022-09-09T15:08:53;3.30;;;1.30;;
63034;SDS011;59750;53.356;-1.458;2022-09-09T15:11:19;3.60;;;1.10;;
63034;SDS011;59750;53.356;-1.458;2022-09-09T15:13:50;1.20;;;0.90;;
63034;SDS011;59750;53.356;-1.458;2022-09-09T15:16:20;1.77;;;0.90;;
63034;SDS011;59750;53.356;-1.458;2022-09-09T15:18:50;2.75;;;1.05;;
63034;SDS011;59750;53.356;-1.458;2022-09-09T15:21:20;2.35;;;0.70;;
63034;SDS011;59750;53.356;-1.458;2022-09-09T15:23:50;1.90;;;0.88;;
63034;SDS011;59750;53.356;-1.458;2022-09-09T15:26:17;1.85;;;0.88;;
63034;SDS011;59750;53.356;-1.458;2022-09-09T15:28:45;2.90;;;1.08;;
63034;SDS011;59750;53.356;-1.458;2022-09-09T15:31:14;3.55;;;0.90;;
63034;SDS011;59750;53.356;-1.458;2022-09-09T15:34:01;2.13;;;0.73;;
63034;SDS011;59750;53.356;-1.458;2022-09-09T15:36:31;1.77;;;1.45;;
63034;SDS011;59750;53.356;-1.458;2022-09-09T15:39:17;1.48;;;0.65;;
63034;SDS011;59750;53.356;-1.458;2022-09-09T15:41:45;1.80;;;0.70;;
63034;SDS011;59750;53.356;-1.458;2022-09-09T15:44:13;1.35;;;0.93;;
63034;SDS011;59750;53.356;-1.458;2022-09-09T15:46:42;2.90;;;0.80;;
63034;SDS011;59750;53.356;-1.458;2022-09-09T15:49:11;1.58;;;0.80;;
63034;SDS011;59750;53.356;-1.458;2022-09-09T15:51:41;1.60;;;0.93;;
63034;SDS011;59750;53.356;-1.458;2022-09-09T15:54:10;0.90;;;0.80;;
63034;SDS011;59750;53.356;-1.458;2022-09-09T15:56:44;1.95;;;0.77;;
63034;SDS011;59750;53.356;-1.458;2022-09-09T15:59:12;1.85;;;0.98;;
63034;SDS011;59750;53.356;-1.458;2022-09-09T16:01:40;2.65;;;0.90;;
63034;SDS011;59750;53.356;-1.458;2022-09-09T16:04:07;4.03;;;0.90;;
63034;SDS011;59750;53.356;-1.458;2022-09-09T16:06:34;3.20;;;0.88;;
63034;SDS011;59750;53.356;-1.458;2022-09-09T16:09:02;3.00;;;1.20;;
63034;SDS011;59750;53.356;-1.458;2022-09-09T16:11:31;1.00;;;0.75;;
63034;SDS011;59750;53.356;-1.458;2022-09-09T16:14:01;3.00;;;0.98;;
63034;SDS011;59750;53.356;-1.458;2022-09-09T16:16:29;2.40;;;0.75;;
63034;SDS011;59750;53.356;-1.458;2022-09-09T16:18:59;2.08;;;0.90;;
63034;SDS011;59750;53.356;-1.458;2022-09-09T16:21:30;4.10;;;0.93;;
63034;SDS011;59750;53.356;-1.458;2022-09-09T16:23:59;1.60;;;0.57;;
63034;SDS011;59750;53.356;-1.458;2022-09-09T16:26:29;2.85;;;0.77;;
63034;SDS011;59750;53.356;-1.458;2022-09-09T16:28:58;2.60;;;0.88;;
63034;SDS011;59750;53.356;-1.458;2022-09-09T16:31:26;2.13;;;0.80;;
63034;SDS011;59750;53.356;-1.458;2022-09-09T16:33:54;2.33;;;0.95;;
63034;SDS011;59750;53.356;-1.458;2022-09-09T16:36:23;4.25;;;0.70;;
63034;SDS011;59750;53.356;-1.458;2022-09-09T16:38:54;3.67;;;1.25;;
63034;SDS011;59750;53.356;-1.458;2022-09-09T16:43:54;3.05;;;1.00;;
63034;SDS011;59750;53.356;-1.458;2022-09-09T16:46:23;1.85;;;0.88;;
63034;SDS011;59750;53.356;-1.458;2022-09-09T16:48:49;2.00;;;0.63;;
63034;SDS011;59750;53.356;-1.458;2022-09-09T16:51:17;5.28;;;1.90;;
63034;SDS011;59750;53.356;-1.458;2022-09-09T16:56:17;4.80;;;0.88;;
63034;SDS011;59750;53.356;-1.458;2022-09-09T16:58:49;2.00;;;1.08;;
63034;SDS011;59750;53.356;-1.458;2022-09-09T17:01:18;3.22;;;1.20;;
63034;SDS011;59750;53.356;-1.458;2022-09-09T17:03:44;3.75;;;1.02;;
63034;SDS011;59750;53.356;-1.458;2022-09-09T17:06:11;2.20;;;1.02;;
63034;SDS011;59750;53.356;-1.458;2022-09-09T17:08:40;2.70;;;1.15;;
63034;SDS011;59750;53.356;-1.458;2022-09-09T17:11:13;3.75;;;1.00;;
63034;SDS011;59750;53.356;-1.458;2022-09-09T17:13:43;4.40;;;1.75;;
63034;SDS011;59750;53.356;-1.458;2022-09-09T17:16:10;4.22;;;0.90;;
63034;SDS011;59750;53.356;-1.458;2022-09-09T17:18:39;3.47;;;1.35;;
63034;SDS011;59750;53.356;-1.458;2022-09-09T17:21:06;1.63;;;1.20;;
63034;SDS011;59750;53.356;-1.458;2022-09-09T17:23:36;1.98;;;1.00;;
63034;SDS011;59750;53.356;-1.458;2022-09-09T17:26:04;4.85;;;1.42;;
63034;SDS011;59750;53.356;-1.458;2022-09-09T17:28:34;2.72;;;1.10;;
63034;SDS011;59750;53.356;-1.458;2022-09-09T17:31:01;4.10;;;1.20;;
63034;SDS011;59750;53.356;-1.458;2022-09-09T17:33:30;2.33;;;1.10;;
63034;SDS011;59750;53.356;-1.458;2022-09-09T17:35:59;1.58;;;1.00;;
63034;SDS011;59750;53.356;-1.458;2022-09-09T17:38:28;4.00;;;1.00;;
63034;SDS011;59750;53.356;-1.458;2022-09-09T17:41:03;3.00;;;0.90;;
63034;SDS011;59750;53.356;-1.458;2022-09-09T17:43:33;3.03;;;1.17;;
63034;SDS011;59750;53.356;-1.458;2022-09-09T17:46:05;2.72;;;0.70;;
63034;SDS011;59750;53.356;-1.458;2022-09-09T17:48:33;1.67;;;0.80;;
63034;SDS011;59750;53.356;-1.458;2022-09-09T17:51:03;1.13;;;0.85;;
63034;SDS011;59750;53.356;-1.458;2022-09-09T17:53:36;1.00;;;0.88;;
63034;SDS011;59750;53.356;-1.458;2022-09-09T17:56:05;3.85;;;1.02;;
63034;SDS011;59750;53.356;-1.458;2022-09-09T17:58:33;1.90;;;0.98;;
63034;SDS011;59750;53.356;-1.458;2022-09-09T18:01:08;1.75;;;1.08;;
63034;SDS011;59750;53.356;-1.458;2022-09-09T18:03:39;4.03;;;1.30;;
63034;SDS011;59750;53.356;-1.458;2022-09-09T18:06:09;2.03;;;1.02;;
63034;SDS011;59750;53.356;-1.458;2022-09-09T18:08:39;4.93;;;1.08;;
63034;SDS011;59750;53.356;-1.458;2022-09-09T18:11:05;2.53;;;1.45;;
63034;SDS011;59750;53.356;-1.458;2022-09-09T18:13:33;2.03;;;1.13;;
63034;SDS011;59750;53.356;-1.458;2022-09-09T18:16:01;3.25;;;1.10;;
63034;SDS011;59750;53.356;-1.458;2022-09-09T18:18:33;3.42;;;1.20;;
63034;SDS011;59750;53.356;-1.458;2022-09-09T18:21:01;3.53;;;1.30;;
63034;SDS011;59750;53.356;-1.458;2022-09-09T18:23:38;3.17;;;1.33;;
63034;SDS011;59750;53.356;-1.458;2022-09-09T18:26:08;6.00;;;1.55;;
63034;SDS011;59750;53.356;-1.458;2022-09-09T18:28:38;6.75;;;1.60;;
63034;SDS011;59750;53.356;-1.458;2022-09-09T18:31:08;5.20;;;1.67;;
63034;SDS011;59750;53.356;-1.458;2022-09-09T18:33:37;3.97;;;1.58;;
63034;SDS011;59750;53.356;-1.458;2022-09-09T18:36:08;3.85;;;1.83;;
63034;SDS011;59750;53.356;-1.458;2022-09-09T18:38:39;4.85;;;2.00;;
63034;SDS011;59750;53.356;-1.458;2022-09-09T18:43:54;5.90;;;2.40;;
63034;SDS011;59750;53.356;-1.458;2022-09-09T18:46:24;6.85;;;3.17;;
63034;SDS011;59750;53.356;-1.458;2022-09-09T18:48:51;4.30;;;1.77;;
63034;SDS011;59750;53.356;-1.458;2022-09-09T18:51:20;6.57;;;2.13;;
63034;SDS011;59750;53.356;-1.458;2022-09-09T18:53:50;8.63;;;2.78;;
63034;SDS011;59750;53.356;-1.458;2022-09-09T18:56:20;10.00;;;2.35;;
63034;SDS011;59750;53.356;-1.458;2022-09-09T18:58:51;4.78;;;2.13;;
63034;SDS011;59750;53.356;-1.458;2022-09-09T19:01:21;6.20;;;1.73;;
63034;SDS011;59750;53.356;-1.458;2022-09-09T19:03:48;6.13;;;2.47;;
63034;SDS011;59750;53.356;-1.458;2022-09-09T19:06:17;6.32;;;2.13;;
63034;SDS011;59750;53.356;-1.458;2022-09-09T19:08:46;6.55;;;2.40;;
63034;SDS011;59750;53.356;-1.458;2022-09-09T19:11:14;4.43;;;2.08;;
63034;SDS011;59750;53.356;-1.458;2022-09-09T19:13:50;4.97;;;1.73;;
63034;SDS011;59750;53.356;-1.458;2022-09-09T19:16:19;4.63;;;1.90;;
63034;SDS011;59750;53.356;-1.458;2022-09-09T19:18:48;11.35;;;2.13;;
63034;SDS011;59750;53.356;-1.458;2022-09-09T19:21:19;5.68;;;1.92;;
63034;SDS011;59750;53.356;-1.458;2022-09-09T19:23:55;5.97;;;2.05;;
63034;SDS011;59750;53.356;-1.458;2022-09-09T19:26:45;6.10;;;2.00;;
63034;SDS011;59750;53.356;-1.458;2022-09-09T19:29:15;4.85;;;1.70;;
63034;SDS011;59750;53.356;-1.458;2022-09-09T19:31:44;4.75;;;2.15;;
63034;SDS011;59750;53.356;-1.458;2022-09-09T19:34:13;7.15;;;2.20;;
63034;SDS011;59750;53.356;-1.458;2022-09-09T19:36:40;7.70;;;2.97;;
63034;SDS011;59750;53.356;-1.458;2022-09-09T19:39:08;6.80;;;2.15;;
63034;SDS011;59750;53.356;-1.458;2022-09-09T19:41:36;7.18;;;2.38;;
63034;SDS011;59750;53.356;-1.458;2022-09-09T19:44:03;6.65;;;2.13;;
63034;SDS011;59750;53.356;-1.458;2022-09-09T19:46:33;3.75;;;1.98;;
63034;SDS011;59750;53.356;-1.458;2022-09-09T19:49:03;4.57;;;2.00;;
63034;SDS011;59750;53.356;-1.458;2022-09-09T19:51:32;9.07;;;2.92;;
63034;SDS011;59750;53.356;-1.458;2022-09-09T19:54:02;6.75;;;2.42;;
63034;SDS011;59750;53.356;-1.458;2022-09-09T19:56:31;5.72;;;2.08;;
63034;SDS011;59750;53.356;-1.458;2022-09-09T19:58:59;5.40;;;2.00;;
63034;SDS011;59750;53.356;-1.458;2022-09-09T20:01:28;8.75;;;2.42;;
63034;SDS011;59750;53.356;-1.458;2022-09-09T20:03:58;5.50;;;2.30;;
63034;SDS011;59750;53.356;-1.458;2022-09-09T20:06:28;5.28;;;2.00;;
63034;SDS011;59750;53.356;-1.458;2022-09-09T20:08:58;5.18;;;1.92;;
63034;SDS011;59750;53.356;-1.458;2022-09-09T20:11:25;6.30;;;1.83;;
63034;SDS011;59750;53.356;-1.458;2022-09-09T20:13:53;5.72;;;2.05;;
63034;SDS011;59750;53.356;-1.458;2022-09-09T20:16:21;8.63;;;2.00;;
63034;SDS011;59750;53.356;-1.458;2022-09-09T20:18:51;7.32;;;1.85;;
63034;SDS011;59750;53.356;-1.458;2022-09-09T20:21:25;4.65;;;1.85;;
63034;SDS011;59750;53.356;-1.458;2022-09-09T20:23:55;11.55;;;2.58;;
63034;SDS011;59750;53.356;-1.458;2022-09-09T20:26:25;8.02;;;2.40;;
63034;SDS011;59750;53.356;-1.458;2022-09-09T20:28:55;5.38;;;2.00;;
63034;SDS011;59750;53.356;-1.458;2022-09-09T20:31:22;7.55;;;2.00;;
63034;SDS011;59750;53.356;-1.458;2022-09-09T20:33:51;10.32;;;2.47;;
63034;SDS011;59750;53.356;-1.458;2022-09-09T20:36:23;4.70;;;1.70;;
63034;SDS011;59750;53.356;-1.458;2022-09-09T20:38:53;6.05;;;2.03;;
63034;SDS011;59750;53.356;-1.458;2022-09-09T20:41:23;7.18;;;1.92;;
63034;SDS011;59750;53.356;-1.458;2022-09-09T20:43:53;6.68;;;2.85;;
63034;SDS011;59750;53.356;-1.458;2022-09-09T20:46:25;4.72;;;1.85;;
63034;SDS011;59750;53.356;-1.458;2022-09-09T20:48:53;7.22;;;2.28;;
63034;SDS011;59750;53.356;-1.458;2022-09-09T20:51:21;4.22;;;1.70;;
63034;SDS011;59750;53.356;-1.458;2022-09-09T20:53:55;7.15;;;2.17;;
63034;SDS011;59750;53.356;-1.458;2022-09-09T20:56:33;5.15;;;1.90;;
63034;SDS011;59750;53.356;-1.458;2022-09-09T20:59:07;6.53;;;1.70;;
63034;SDS011;59750;53.356;-1.458;2022-09-09T21:01:39;5.47;;;1.85;;
63034;SDS011;59750;53.356;-1.458;2022-09-09T21:04:06;4.50;;;1.60;;
63034;SDS011;59750;53.356;-1.458;2022-09-09T21:06:34;4.65;;;1.83;;
63034;SDS011;59750;53.356;-1.458;2022-09-09T21:09:01;5.72;;;1.60;;
63034;SDS011;59750;53.356;-1.458;2022-09-09T21:11:27;5.45;;;2.03;;
63034;SDS011;59750;53.356;-1.458;2022-09-09T21:13:54;6.68;;;2.28;;
63034;SDS011;59750;53.356;-1.458;2022-09-09T21:16:21;5.85;;;1.70;;
63034;SDS011;59750;53.356;-1.458;2022-09-09T21:18:47;5.70;;;1.80;;
63034;SDS011;59750;53.356;-1.458;2022-09-09T21:21:14;3.17;;;1.33;;
63034;SDS011;59750;53.356;-1.458;2022-09-09T21:23:43;8.32;;;1.73;;
63034;SDS011;59750;53.356;-1.458;2022-09-09T21:26:10;9.48;;;2.33;;
63034;SDS011;59750;53.356;-1.458;2022-09-09T21:28:36;6.97;;;1.90;;
63034;SDS011;59750;53.356;-1.458;2022-09-09T21:31:03;8.85;;;3.00;;
63034;SDS011;59750;53.356;-1.458;2022-09-09T21:33:30;5.65;;;2.10;;
63034;SDS011;59750;53.356;-1.458;2022-09-09T21:36:02;5.75;;;1.73;;
63034;SDS011;59750;53.356;-1.458;2022-09-09T21:38:31;6.82;;;1.92;;
63034;SDS011;59750;53.356;-1.458;2022-09-09T21:41:01;7.15;;;1.80;;
63034;SDS011;59750;53.356;-1.458;2022-09-09T21:43:30;7.88;;;1.98;;
63034;SDS011;59750;53.356;-1.458;2022-09-09T21:45:56;4.63;;;1.83;;
63034;SDS011;59750;53.356;-1.458;2022-09-09T21:48:23;6.80;;;1.73;;
63034;SDS011;59750;53.356;-1.458;2022-09-09T21:50:51;3.58;;;1.77;;
63034;SDS011;59750;53.356;-1.458;2022-09-09T21:53:19;6.32;;;1.88;;
63034;SDS011;59750;53.356;-1.458;2022-09-09T21:55:46;6.80;;;1.98;;
63034;SDS011;59750;53.356;-1.458;2022-09-09T21:58:14;8.43;;;2.35;;
63034;SDS011;59750;53.356;-1.458;2022-09-09T22:00:41;7.97;;;2.22;;
63034;SDS011;59750;53.356;-1.458;2022-09-09T22:03:10;4.35;;;1.98;;
63034;SDS011;59750;53.356;-1.458;2022-09-09T22:05:39;3.80;;;1.83;;
63034;SDS011;59750;53.356;-1.458;2022-09-09T22:08:08;3.75;;;1.98;;
63034;SDS011;59750;53.356;-1.458;2022-09-09T22:10:36;6.43;;;1.95;;
63034;SDS011;59750;53.356;-1.458;2022-09-09T22:13:04;10.45;;;2.17;;
63034;SDS011;59750;53.356;-1.458;2022-09-09T22:15:31;13.55;;;2.50;;
63034;SDS011;59750;53.356;-1.458;2022-09-09T22:17:59;6.30;;;2.35;;
63034;SDS011;59750;53.356;-1.458;2022-09-09T22:20:29;7.15;;;2.10;;
63034;SDS011;59750;53.356;-1.458;2022-09-09T22:22:58;7.65;;;2.10;;
63034;SDS011;59750;53.356;-1.458;2022-09-09T22:25:25;7.22;;;2.10;;
63034;SDS011;59750;53.356;-1.458;2022-09-09T22:27:53;4.93;;;2.25;;
63034;SDS011;59750;53.356;-1.458;2022-09-09T22:30:20;4.70;;;2.45;;
63034;SDS011;59750;53.356;-1.458;2022-09-09T22:32:46;6.10;;;2.22;;
63034;SDS011;59750;53.356;-1.458;2022-09-09T22:35:12;4.50;;;1.90;;
63034;SDS011;59750;53.356;-1.458;2022-09-09T22:37:39;7.22;;;2.47;;
63034;SDS011;59750;53.356;-1.458;2022-09-09T22:40:06;10.77;;;2.40;;
63034;SDS011;59750;53.356;-1.458;2022-09-09T22:42:34;6.78;;;2.83;;
63034;SDS011;59750;53.356;-1.458;2022-09-09T22:45:00;10.05;;;2.50;;
63034;SDS011;59750;53.356;-1.458;2022-09-09T22:47:26;13.18;;;2.80;;
63034;SDS011;59750;53.356;-1.458;2022-09-09T22:49:52;7.35;;;2.70;;
63034;SDS011;59750;53.356;-1.458;2022-09-09T22:52:19;7.13;;;3.13;;
63034;SDS011;59750;53.356;-1.458;2022-09-09T22:54:46;6.50;;;2.72;;
63034;SDS011;59750;53.356;-1.458;2022-09-09T22:57:14;4.78;;;2.58;;
63034;SDS011;59750;53.356;-1.458;2022-09-09T22:59:40;5.80;;;2.45;;
63034;SDS011;59750;53.356;-1.458;2022-09-09T23:02:08;7.88;;;2.95;;
63034;SDS011;59750;53.356;-1.458;2022-09-09T23:04:35;5.43;;;2.58;;
63034;SDS011;59750;53.356;-1.458;2022-09-09T23:07:04;10.80;;;3.25;;
63034;SDS011;59750;53.356;-1.458;2022-09-09T23:09:33;9.55;;;3.15;;
63034;SDS011;59750;53.356;-1.458;2022-09-09T23:11:59;5.88;;;2.90;;
63034;SDS011;59750;53.356;-1.458;2022-09-09T23:14:26;5.00;;;2.72;;
63034;SDS011;59750;53.356;-1.458;2022-09-09T23:16:52;5.45;;;2.67;;
63034;SDS011;59750;53.356;-1.458;2022-09-09T23:19:18;6.65;;;2.75;;
63034;SDS011;59750;53.356;-1.458;2022-09-09T23:21:46;4.07;;;2.20;;
63034;SDS011;59750;53.356;-1.458;2022-09-09T23:24:13;7.45;;;2.78;;
63034;SDS011;59750;53.356;-1.458;2022-09-09T23:26:41;4.18;;;2.53;;
63034;SDS011;59750;53.356;-1.458;2022-09-09T23:29:10;5.95;;;2.40;;
63034;SDS011;59750;53.356;-1.458;2022-09-09T23:31:41;2.88;;;2.20;;
63034;SDS011;59750;53.356;-1.458;2022-09-09T23:34:11;8.52;;;2.72;;
63034;SDS011;59750;53.356;-1.458;2022-09-09T23:36:38;10.65;;;2.58;;
63034;SDS011;59750;53.356;-1.458;2022-09-09T23:39:06;3.30;;;2.17;;
63034;SDS011;59750;53.356;-1.458;2022-09-09T23:41:34;4.55;;;2.72;;
63034;SDS011;59750;53.356;-1.458;2022-09-09T23:44:02;7.80;;;2.60;;
63034;SDS011;59750;53.356;-1.458;2022-09-09T23:46:29;4.45;;;2.75;;
63034;SDS011;59750;53.356;-1.458;2022-09-09T23:48:56;4.05;;;2.30;;
63034;SDS011;59750;53.356;-1.458;2022-09-09T23:51:23;7.75;;;3.00;;
63034;SDS011;59750;53.356;-1.458;2022-09-09T23:56:23;6.38;;;2.67;;
63034;SDS011;59750;53.356;-1.458;2022-09-09T23:58:51;4.90;;;2.22;;
